createdAt,value
2019-03-23T00:01:57.450Z,39.53
2019-03-23T00:04:26.055Z,36.95
2019-03-23T00:06:54.664Z,34.00
2019-03-23T00:09:23.228Z,35.70
2019-03-23T00:11:51.862Z,32.48
2019-03-23T00:14:20.456Z,36.15
2019-03-23T00:16:49.038Z,46.48
2019-03-23T00:19:17.627Z,41.02
2019-03-23T00:21:46.222Z,52.60
2019-03-23T00:24:14.744Z,47.08
2019-03-23T00:26:43.306Z,41.45
2019-03-23T00:29:11.965Z,36.17
2019-03-23T00:31:40.501Z,41.80
2019-03-23T00:34:09.023Z,40.03
2019-03-23T00:36:41.708Z,38.63
2019-03-23T00:39:07.911Z,43.80
2019-03-23T00:41:55.869Z,37.53
2019-03-23T00:44:24.528Z,40.58
2019-03-23T00:46:53.174Z,47.93
2019-03-23T00:49:21.760Z,36.98
2019-03-23T00:51:50.247Z,41.77
2019-03-23T00:54:18.874Z,41.53
2019-03-23T00:56:47.500Z,42.90
2019-03-23T00:59:16.119Z,36.90
2019-03-23T01:01:44.678Z,41.83
2019-03-23T01:04:13.330Z,37.83
2019-03-23T01:06:51.529Z,43.08
2019-03-23T01:09:12.213Z,38.75
2019-03-23T01:11:40.831Z,39.65
2019-03-23T01:14:09.407Z,36.25
2019-03-23T01:16:37.977Z,35.65
2019-03-23T01:19:06.506Z,40.45
2019-03-23T01:21:35.074Z,38.02
2019-03-23T01:24:03.813Z,44.18
2019-03-23T01:26:32.411Z,44.42
2019-03-23T01:29:00.961Z,39.60
2019-03-23T01:31:29.540Z,43.80
2019-03-23T01:34:00.072Z,44.13
2019-03-23T01:36:28.618Z,45.70
2019-03-23T01:38:57.216Z,43.68
2019-03-23T01:41:25.825Z,38.35
2019-03-23T01:43:54.458Z,41.02
2019-03-23T01:46:23.036Z,42.23
2019-03-23T01:48:51.623Z,49.03
2019-03-23T01:51:20.220Z,55.35
2019-03-23T01:53:48.838Z,49.08
2019-03-23T01:56:17.404Z,44.20
2019-03-23T01:58:46.015Z,47.70
2019-03-23T02:01:14.611Z,49.30
2019-03-23T02:03:43.181Z,39.33
2019-03-23T02:06:11.756Z,39.92
2019-03-23T02:08:40.335Z,48.80
2019-03-23T02:11:08.938Z,39.38
2019-03-23T02:13:37.501Z,45.50
2019-03-23T02:16:06.054Z,42.05
2019-03-23T02:18:34.638Z,39.60
2019-03-23T02:21:03.202Z,43.10
2019-03-23T02:23:31.846Z,39.80
2019-03-23T02:26:00.421Z,41.37
2019-03-23T02:28:29.051Z,41.80
2019-03-23T02:30:57.635Z,43.33
2019-03-23T02:33:26.201Z,40.63
2019-03-23T02:35:54.737Z,42.80
2019-03-23T02:38:23.351Z,42.30
2019-03-23T02:40:51.931Z,38.93
2019-03-23T02:43:20.552Z,32.73
2019-03-23T02:45:49.158Z,35.05
2019-03-23T02:48:17.819Z,31.45
2019-03-23T02:50:46.358Z,29.07
2019-03-23T02:53:14.957Z,30.82
2019-03-23T02:55:43.600Z,40.60
2019-03-23T02:58:12.215Z,32.78
2019-03-23T03:00:40.767Z,37.33
2019-03-23T03:03:09.308Z,36.35
2019-03-23T03:05:37.892Z,35.70
2019-03-23T03:08:06.503Z,27.07
2019-03-23T03:10:41.942Z,31.02
2019-03-23T03:13:10.619Z,37.17
2019-03-23T03:15:39.568Z,30.77
2019-03-23T03:18:08.399Z,28.77
2019-03-23T03:20:37.093Z,40.95
2019-03-23T03:23:05.698Z,42.13
2019-03-23T03:25:34.242Z,33.05
2019-03-23T03:28:02.897Z,39.58
2019-03-23T03:30:31.530Z,35.43
2019-03-23T03:33:00.110Z,37.05
2019-03-23T03:35:28.651Z,34.80
2019-03-23T03:37:57.539Z,37.63
2019-03-23T03:40:26.170Z,30.27
2019-03-23T03:42:54.775Z,33.80
2019-03-23T03:45:27.809Z,35.17
2019-03-23T03:47:56.611Z,30.37
2019-03-23T03:50:25.254Z,28.40
2019-03-23T03:52:53.891Z,29.35
2019-03-23T03:55:22.433Z,31.73
2019-03-23T03:57:51.007Z,25.95
2019-03-23T04:00:19.556Z,25.70
2019-03-23T04:02:48.189Z,26.52
2019-03-23T04:05:16.787Z,26.65
2019-03-23T04:07:45.730Z,23.12
2019-03-23T04:10:14.433Z,22.85
2019-03-23T04:12:43.096Z,29.50
2019-03-23T04:15:12.014Z,24.18
2019-03-23T04:17:40.538Z,25.05
2019-03-23T04:20:10.697Z,22.25
2019-03-23T04:22:39.306Z,22.48
2019-03-23T04:25:08.870Z,26.02
2019-03-23T04:27:37.528Z,22.60
2019-03-23T04:30:07.826Z,20.55
2019-03-23T04:32:36.449Z,24.02
2019-03-23T04:35:06.163Z,21.42
2019-03-23T04:37:34.776Z,19.32
2019-03-23T04:40:03.604Z,28.77
2019-03-23T04:42:32.218Z,21.05
2019-03-23T04:45:00.799Z,28.12
2019-03-23T04:47:29.415Z,21.30
2019-03-23T04:49:57.998Z,23.73
2019-03-23T04:52:26.554Z,21.93
2019-03-23T04:54:55.109Z,29.27
2019-03-23T04:57:23.608Z,22.85
2019-03-23T04:59:52.240Z,19.60
2019-03-23T05:02:20.900Z,23.20
2019-03-23T05:04:49.435Z,19.55
2019-03-23T05:07:18.043Z,21.77
2019-03-23T05:09:46.623Z,18.87
2019-03-23T05:12:15.186Z,25.00
2019-03-23T05:14:43.822Z,21.97
2019-03-23T05:17:12.550Z,22.32
2019-03-23T05:19:41.253Z,20.60
2019-03-23T05:22:09.808Z,21.75
2019-03-23T05:24:38.460Z,23.77
2019-03-23T05:27:07.040Z,22.40
2019-03-23T05:29:35.551Z,21.57
2019-03-23T05:32:04.248Z,24.20
2019-03-23T05:34:32.834Z,28.02
2019-03-23T05:37:01.479Z,24.02
2019-03-23T05:39:30.146Z,24.35
2019-03-23T05:41:58.868Z,23.60
2019-03-23T05:44:27.435Z,24.57
2019-03-23T05:46:55.971Z,19.55
2019-03-23T05:49:24.579Z,24.67
2019-03-23T05:51:53.227Z,19.12
2019-03-23T05:54:21.893Z,22.07
2019-03-23T05:56:50.537Z,19.82
2019-03-23T05:59:19.233Z,15.88
2019-03-23T06:01:47.843Z,20.40
2019-03-23T06:04:16.472Z,17.23
2019-03-23T06:06:45.074Z,16.65
2019-03-23T06:09:13.712Z,16.30
2019-03-23T06:11:42.569Z,15.60
2019-03-23T06:14:11.154Z,20.00
2019-03-23T06:16:39.735Z,14.78
2019-03-23T06:19:08.211Z,13.72
2019-03-23T06:21:36.829Z,17.07
2019-03-23T06:24:05.540Z,17.45
2019-03-23T06:26:34.154Z,16.48
2019-03-23T06:29:02.792Z,14.70
2019-03-23T06:31:31.403Z,12.37
2019-03-23T06:33:59.941Z,13.57
2019-03-23T06:36:28.484Z,13.17
2019-03-23T06:39:05.105Z,14.68
2019-03-23T06:41:27.404Z,15.03
2019-03-23T06:43:55.990Z,13.67
2019-03-23T06:46:24.452Z,14.10
2019-03-23T06:48:53.009Z,11.00
2019-03-23T06:51:21.651Z,11.90
2019-03-23T06:53:50.361Z,15.30
2019-03-23T06:56:18.936Z,14.70
2019-03-23T06:58:47.512Z,15.37
2019-03-23T07:01:16.161Z,13.20
2019-03-23T07:03:44.721Z,11.67
2019-03-23T07:06:14.819Z,14.00
2019-03-23T07:08:43.375Z,13.80
2019-03-23T07:11:11.969Z,14.57
2019-03-23T07:13:40.488Z,16.03
2019-03-23T07:16:09.052Z,9.53
2019-03-23T07:18:37.678Z,13.60
2019-03-23T07:21:06.239Z,13.33
2019-03-23T07:23:34.806Z,15.27
2019-03-23T07:26:03.367Z,12.77
2019-03-23T07:28:31.984Z,12.40
2019-03-23T07:31:00.535Z,10.70
2019-03-23T07:33:29.124Z,13.40
2019-03-23T07:35:58.625Z,12.17
2019-03-23T07:38:27.203Z,15.57
2019-03-23T07:41:15.698Z,10.70
2019-03-23T07:43:44.648Z,13.70
2019-03-23T07:46:13.262Z,12.83
2019-03-23T07:48:41.825Z,15.00
2019-03-23T07:51:10.480Z,14.20
2019-03-23T07:53:39.077Z,13.47
2019-03-23T07:56:07.683Z,15.40
2019-03-23T07:58:36.299Z,14.33
2019-03-23T08:01:05.050Z,17.00
2019-03-23T08:03:33.567Z,13.50
2019-03-23T08:06:02.202Z,13.30
2019-03-23T08:08:30.818Z,19.77
2019-03-23T08:10:59.366Z,16.70
2019-03-23T08:13:27.988Z,23.03
2019-03-23T08:15:56.681Z,17.87
2019-03-23T08:18:25.413Z,27.70
2019-03-23T08:20:55.106Z,21.33
2019-03-23T08:23:23.601Z,22.77
2019-03-23T08:25:52.176Z,30.57
2019-03-23T08:28:22.305Z,21.43
2019-03-23T08:30:50.946Z,26.30
2019-03-23T08:33:19.528Z,21.83
2019-03-23T08:35:48.202Z,26.40
2019-03-23T08:38:16.776Z,30.53
2019-03-23T08:40:45.397Z,22.83
2019-03-23T08:43:13.942Z,26.67
2019-03-23T08:45:42.544Z,23.80
2019-03-23T08:48:11.131Z,32.33
2019-03-23T08:50:41.048Z,28.47
2019-03-23T08:53:09.829Z,27.40
2019-03-23T08:55:38.380Z,28.27
2019-03-23T08:58:07.044Z,24.50
2019-03-23T09:00:35.793Z,25.00
2019-03-23T09:03:04.402Z,29.80
2019-03-23T09:05:33.105Z,28.53
2019-03-23T09:08:01.763Z,24.97
2019-03-23T09:10:30.358Z,27.63
2019-03-23T09:12:58.921Z,26.00
2019-03-23T09:15:27.569Z,29.33
2019-03-23T09:17:56.145Z,23.37
2019-03-23T09:20:24.805Z,25.50
2019-03-23T09:22:53.312Z,24.23
2019-03-23T09:25:21.873Z,22.73
2019-03-23T09:27:50.400Z,27.57
2019-03-23T09:30:19.123Z,30.67
2019-03-23T09:32:47.724Z,26.83
2019-03-23T09:35:16.278Z,24.63
2019-03-23T09:37:44.849Z,26.20
2019-03-23T09:40:13.478Z,26.80
2019-03-23T09:42:42.123Z,26.60
2019-03-23T09:45:11.159Z,26.10
2019-03-23T09:47:40.605Z,29.00
2019-03-23T09:50:10.429Z,33.20
2019-03-23T09:52:39.050Z,31.80
2019-03-23T09:55:08.143Z,33.33
2019-03-23T09:57:36.895Z,36.13
2019-03-23T10:00:12.658Z,32.73
2019-03-23T10:02:41.249Z,34.90
2019-03-23T10:05:09.882Z,33.43
2019-03-23T10:07:40.109Z,29.07
2019-03-23T10:10:09.178Z,29.13
2019-03-23T10:12:37.783Z,33.00
2019-03-23T10:15:07.798Z,28.93
2019-03-23T10:17:36.308Z,31.17
2019-03-23T10:20:07.109Z,28.20
2019-03-23T10:22:35.807Z,29.03
2019-03-23T10:25:07.221Z,32.67
2019-03-23T10:27:35.891Z,32.00
2019-03-23T10:30:07.302Z,30.77
2019-03-23T10:32:35.829Z,30.90
2019-03-23T10:35:06.626Z,29.53
2019-03-23T10:37:35.388Z,27.03
2019-03-23T10:40:07.429Z,25.87
2019-03-23T10:42:36.200Z,30.70
2019-03-23T10:45:08.589Z,28.40
2019-03-23T10:47:37.302Z,28.43
2019-03-23T10:50:06.677Z,24.60
2019-03-23T10:52:35.394Z,27.87
2019-03-23T10:55:06.444Z,30.37
2019-03-23T10:57:35.040Z,31.60
2019-03-23T11:00:05.763Z,27.60
2019-03-23T11:02:34.273Z,39.83
2019-03-23T11:05:03.353Z,30.40
2019-03-23T11:07:32.014Z,41.80
2019-03-23T11:10:00.621Z,32.00
2019-03-23T11:12:29.221Z,26.30
2019-03-23T11:14:57.808Z,30.77
2019-03-23T11:17:26.390Z,28.77
2019-03-23T11:19:54.965Z,28.60
2019-03-23T11:22:23.646Z,24.33
2019-03-23T11:24:52.288Z,31.53
2019-03-23T11:27:20.955Z,27.07
2019-03-23T11:29:49.664Z,26.73
2019-03-23T11:32:18.277Z,27.13
2019-03-23T11:34:46.914Z,27.83
2019-03-23T11:37:15.576Z,27.90
2019-03-23T11:39:44.212Z,27.93
2019-03-23T11:42:12.838Z,28.90
2019-03-23T11:44:41.534Z,29.50
2019-03-23T11:47:10.100Z,27.50
2019-03-23T11:49:38.660Z,28.90
2019-03-23T11:52:07.353Z,27.63
2019-03-23T11:54:35.953Z,27.60
2019-03-23T11:57:04.477Z,24.70
2019-03-23T11:59:33.069Z,30.03
2019-03-23T12:02:01.606Z,28.50
2019-03-23T12:04:30.215Z,24.90
2019-03-23T12:06:58.836Z,32.97
2019-03-23T12:09:27.412Z,24.37
2019-03-23T12:12:15.348Z,29.10
2019-03-23T12:14:44.003Z,31.40
2019-03-23T12:17:12.649Z,28.77
2019-03-23T12:19:41.297Z,26.30
2019-03-23T12:22:09.861Z,24.97
2019-03-23T12:24:38.492Z,29.03
2019-03-23T12:27:07.053Z,26.27
2019-03-23T12:29:35.613Z,28.30
2019-03-23T12:32:04.186Z,27.17
2019-03-23T12:34:32.847Z,28.47
2019-03-23T12:37:02.269Z,27.20
2019-03-23T12:39:30.856Z,29.23
2019-03-23T12:41:59.622Z,28.97
2019-03-23T12:44:28.270Z,27.90
2019-03-23T12:46:56.878Z,27.73
2019-03-23T12:49:25.522Z,26.90
2019-03-23T12:51:54.096Z,25.27
2019-03-23T12:54:22.792Z,26.37
2019-03-23T12:56:51.308Z,25.27
2019-03-23T12:59:20.140Z,28.43
2019-03-23T13:01:48.702Z,27.60
2019-03-23T13:04:17.263Z,28.30
2019-03-23T13:06:46.040Z,28.37
2019-03-23T13:09:19.823Z,28.93
2019-03-23T13:11:48.487Z,24.50
2019-03-23T13:14:17.107Z,28.87
2019-03-23T13:16:45.846Z,27.60
2019-03-23T13:19:14.409Z,25.93
2019-03-23T13:21:43.044Z,29.97
2019-03-23T13:24:11.543Z,29.10
2019-03-23T13:26:40.183Z,26.67
2019-03-23T13:29:08.793Z,29.80
2019-03-23T13:31:37.440Z,25.40
2019-03-23T13:34:06.066Z,25.57
2019-03-23T13:36:34.656Z,26.47
2019-03-23T13:39:04.596Z,31.07
2019-03-23T13:41:33.210Z,28.20
2019-03-23T13:44:01.825Z,33.97
2019-03-23T13:46:30.438Z,29.33
2019-03-23T13:48:59.023Z,31.17
2019-03-23T13:51:27.762Z,31.30
2019-03-23T13:53:56.349Z,33.07
2019-03-23T13:56:25.029Z,32.73
2019-03-23T13:58:53.705Z,29.13
2019-03-23T14:01:23.814Z,32.73
2019-03-23T14:03:52.422Z,33.53
2019-03-23T14:06:21.090Z,29.53
2019-03-23T14:08:49.806Z,28.33
2019-03-23T14:11:18.528Z,31.13
2019-03-23T14:13:47.200Z,38.10
2019-03-23T14:16:15.746Z,38.80
2019-03-23T14:18:44.290Z,33.17
2019-03-23T14:21:12.883Z,29.77
2019-03-23T14:23:41.445Z,32.13
2019-03-23T14:26:10.030Z,31.97
2019-03-23T14:28:38.547Z,30.30
2019-03-23T14:31:07.160Z,31.27
2019-03-23T14:33:35.722Z,29.20
2019-03-23T14:36:04.400Z,31.20
2019-03-23T14:38:33.019Z,29.60
2019-03-23T14:41:01.664Z,32.53
2019-03-23T14:43:30.306Z,29.83
2019-03-23T14:45:58.989Z,28.13
2019-03-23T14:48:27.637Z,29.77
2019-03-23T14:50:56.244Z,29.90
2019-03-23T14:53:24.909Z,31.17
2019-03-23T14:55:53.393Z,29.67
2019-03-23T14:58:22.030Z,30.67
2019-03-23T15:00:50.719Z,30.50
2019-03-23T15:03:19.377Z,31.13
2019-03-23T15:05:47.997Z,27.73
2019-03-23T15:08:16.739Z,32.63
2019-03-23T15:10:45.768Z,29.70
2019-03-23T15:13:14.343Z,29.23
2019-03-23T15:15:43.075Z,31.17
2019-03-23T15:18:11.677Z,28.93
2019-03-23T15:20:40.276Z,31.37
2019-03-23T15:23:08.940Z,33.23
2019-03-23T15:25:39.512Z,34.73
2019-03-23T15:28:08.200Z,34.37
2019-03-23T15:30:36.958Z,38.43
2019-03-23T15:33:05.693Z,36.17
2019-03-23T15:35:34.287Z,36.23
2019-03-23T15:38:06.424Z,37.47
2019-03-23T15:40:36.680Z,38.87
2019-03-23T15:43:05.356Z,33.97
2019-03-23T15:45:33.961Z,39.73
2019-03-23T15:48:02.468Z,35.37
2019-03-23T15:50:30.949Z,36.00
2019-03-23T15:53:00.839Z,35.57
2019-03-23T15:55:29.436Z,39.47
2019-03-23T15:57:58.005Z,35.40
2019-03-23T16:00:26.686Z,35.70
2019-03-23T16:02:55.737Z,39.70
2019-03-23T16:05:24.391Z,35.80
2019-03-23T16:07:54.537Z,38.07
2019-03-23T16:10:23.167Z,38.87
2019-03-23T16:12:51.758Z,39.37
2019-03-23T16:15:20.397Z,38.13
2019-03-23T16:17:48.940Z,36.40
2019-03-23T16:20:18.387Z,35.27
2019-03-23T16:22:47.075Z,35.13
2019-03-23T16:25:15.744Z,33.37
2019-03-23T16:27:56.248Z,35.00
2019-03-23T16:30:46.096Z,36.00
2019-03-23T16:33:44.834Z,32.87
2019-03-23T16:36:32.528Z,40.13
2019-03-23T16:39:01.212Z,35.00
2019-03-23T16:41:29.772Z,35.97
2019-03-23T16:43:58.386Z,33.53
2019-03-23T16:46:26.968Z,36.60
2019-03-23T16:48:55.624Z,38.73
2019-03-23T16:51:24.208Z,36.67
2019-03-23T16:53:55.113Z,38.97
2019-03-23T16:56:23.762Z,33.30
2019-03-23T16:58:52.346Z,36.30
2019-03-23T17:01:21.455Z,36.87
2019-03-23T17:03:50.007Z,32.53
2019-03-23T17:06:18.591Z,34.60
2019-03-23T17:08:47.373Z,34.60
2019-03-23T17:11:15.931Z,33.93
2019-03-23T17:13:44.556Z,36.47
2019-03-23T17:16:13.319Z,35.93
2019-03-23T17:18:41.902Z,37.60
2019-03-23T17:21:10.589Z,40.57
2019-03-23T17:23:39.204Z,48.97
2019-03-23T17:26:07.720Z,39.70
2019-03-23T17:28:36.322Z,34.17
2019-03-23T17:31:05.015Z,39.27
2019-03-23T17:33:33.607Z,28.80
2019-03-23T17:36:02.226Z,37.77
2019-03-23T17:38:30.764Z,31.27
2019-03-23T17:40:59.346Z,39.03
2019-03-23T17:43:27.829Z,31.43
2019-03-23T17:45:56.512Z,35.37
2019-03-23T17:48:25.205Z,37.70
2019-03-23T17:50:53.861Z,34.10
2019-03-23T17:53:22.515Z,31.50
2019-03-23T17:55:51.181Z,33.67
2019-03-23T17:58:19.663Z,30.87
2019-03-23T18:00:48.221Z,32.30
2019-03-23T18:03:16.797Z,32.60
2019-03-23T18:05:45.479Z,38.53
2019-03-23T18:08:14.098Z,32.17
2019-03-23T18:10:42.704Z,34.73
2019-03-23T18:13:16.550Z,29.43
2019-03-23T18:15:41.519Z,32.27
2019-03-23T18:18:20.580Z,28.67
2019-03-23T18:20:49.510Z,35.77
2019-03-23T18:23:18.095Z,47.00
2019-03-23T18:25:46.715Z,35.97
2019-03-23T18:28:15.560Z,30.73
2019-03-23T18:30:44.710Z,29.57
2019-03-23T18:33:13.442Z,38.33
2019-03-23T18:35:42.171Z,34.53
2019-03-23T18:38:10.818Z,27.60
2019-03-23T18:40:39.738Z,31.80
2019-03-23T18:43:08.395Z,30.73
2019-03-23T18:45:37.125Z,28.47
2019-03-23T18:48:05.853Z,31.23
2019-03-23T18:50:34.646Z,33.93
2019-03-23T18:53:03.303Z,31.83
2019-03-23T18:55:31.798Z,34.60
2019-03-23T18:58:00.419Z,31.67
2019-03-23T19:00:35.006Z,34.13
2019-03-23T19:03:04.035Z,36.07
2019-03-23T19:05:32.727Z,36.27
2019-03-23T19:08:01.463Z,33.93
2019-03-23T19:10:30.011Z,37.00
2019-03-23T19:12:58.626Z,35.73
2019-03-23T19:15:27.242Z,39.43
2019-03-23T19:17:55.981Z,35.43
2019-03-23T19:20:24.908Z,36.80
2019-03-23T19:22:53.727Z,34.70
2019-03-23T19:25:22.322Z,35.13
2019-03-23T19:27:50.925Z,35.50
2019-03-23T19:30:19.751Z,32.57
2019-03-23T19:32:48.281Z,33.47
2019-03-23T19:35:16.833Z,41.07
2019-03-23T19:37:45.358Z,35.83
2019-03-23T19:40:14.188Z,34.50
2019-03-23T19:42:42.794Z,40.47
2019-03-23T19:45:11.454Z,28.53
2019-03-23T19:47:40.046Z,40.40
2019-03-23T19:50:09.023Z,35.70
2019-03-23T19:52:37.539Z,60.70
2019-03-23T19:55:08.004Z,35.93
2019-03-23T19:57:36.598Z,39.97
2019-03-23T20:00:07.342Z,41.00
2019-03-23T20:02:35.920Z,33.80
2019-03-23T20:05:07.189Z,45.10
2019-03-23T20:07:35.783Z,37.00
2019-03-23T20:10:06.890Z,45.33
2019-03-23T20:12:35.527Z,39.27
2019-03-23T20:15:06.569Z,41.47
2019-03-23T20:17:35.228Z,36.17
2019-03-23T20:20:08.684Z,39.67
2019-03-23T20:22:37.356Z,50.73
2019-03-23T20:25:07.710Z,37.20
2019-03-23T20:27:36.311Z,45.70
2019-03-23T20:30:10.417Z,40.17
2019-03-23T20:32:39.173Z,47.23
2019-03-23T20:35:09.562Z,42.47
2019-03-23T20:37:38.218Z,46.23
2019-03-23T20:40:08.116Z,44.25
2019-03-23T20:42:36.738Z,48.55
2019-03-23T20:45:08.983Z,40.52
2019-03-23T20:47:40.111Z,43.78
2019-03-23T20:50:09.139Z,55.00
2019-03-23T20:52:38.096Z,40.20
2019-03-23T20:55:09.716Z,50.00
2019-03-23T20:57:38.355Z,49.13
2019-03-23T21:00:08.160Z,51.53
2019-03-23T21:02:36.783Z,47.63
2019-03-23T21:05:06.402Z,44.13
2019-03-23T21:07:35.539Z,52.13
2019-03-23T21:10:05.827Z,50.03
2019-03-23T21:12:34.451Z,46.07
2019-03-23T21:15:03.018Z,46.33
2019-03-23T21:17:31.740Z,48.53
2019-03-23T21:20:00.359Z,43.42
2019-03-23T21:22:29.031Z,63.33
2019-03-23T21:24:57.544Z,41.20
2019-03-23T21:27:26.087Z,52.00
2019-03-23T21:29:54.680Z,46.30
2019-03-23T21:32:23.206Z,49.85
2019-03-23T21:34:51.822Z,45.43
2019-03-23T21:37:20.399Z,47.40
2019-03-23T21:39:51.076Z,54.27
2019-03-23T21:42:19.622Z,48.83
2019-03-23T21:44:48.229Z,52.48
2019-03-23T21:47:16.821Z,66.20
2019-03-23T21:49:45.447Z,59.15
2019-03-23T21:52:14.045Z,68.15
2019-03-23T21:54:42.638Z,54.10
2019-03-23T21:57:11.167Z,56.80
2019-03-23T21:59:39.675Z,64.10
2019-03-23T22:02:08.354Z,66.97
2019-03-23T22:04:36.894Z,53.30
2019-03-23T22:07:05.460Z,60.80
2019-03-23T22:09:34.007Z,62.77
2019-03-23T22:12:02.525Z,60.23
2019-03-23T22:14:41.168Z,59.35
2019-03-23T22:17:01.302Z,60.88
2019-03-23T22:19:29.944Z,56.28
2019-03-23T22:21:58.591Z,63.97
2019-03-23T22:24:27.174Z,60.50
2019-03-23T22:26:55.692Z,57.13
2019-03-23T22:29:24.287Z,54.25
2019-03-23T22:31:52.888Z,52.17
2019-03-23T22:34:21.455Z,60.43
2019-03-23T22:36:50.044Z,57.50
2019-03-23T22:39:18.529Z,61.27
2019-03-23T22:41:47.178Z,55.12
2019-03-23T22:44:15.707Z,52.90
2019-03-23T22:46:44.337Z,60.17
2019-03-23T22:49:12.909Z,66.42
2019-03-23T22:51:41.417Z,57.17
2019-03-23T22:54:10.035Z,56.37
2019-03-23T22:56:38.642Z,55.88
2019-03-23T22:59:07.240Z,61.77
2019-03-23T23:01:35.980Z,58.23
2019-03-23T23:04:04.687Z,57.50
2019-03-23T23:06:33.378Z,58.25
2019-03-23T23:09:01.965Z,65.40
2019-03-23T23:11:30.530Z,57.50
2019-03-23T23:13:59.119Z,63.50
2019-03-23T23:16:27.695Z,63.95
2019-03-23T23:18:56.299Z,66.00
2019-03-23T23:21:24.910Z,59.50
2019-03-23T23:23:53.486Z,57.48
2019-03-23T23:26:22.074Z,69.30
2019-03-23T23:28:50.709Z,59.25
2019-03-23T23:31:19.191Z,63.13
2019-03-23T23:33:47.749Z,72.42
2019-03-23T23:36:16.296Z,69.30
2019-03-23T23:38:44.880Z,68.85
2019-03-23T23:41:13.467Z,70.47
2019-03-23T23:43:42.052Z,71.02
2019-03-23T23:46:10.554Z,71.07
2019-03-23T23:48:39.066Z,64.47
2019-03-23T23:51:07.596Z,59.35
2019-03-23T23:53:36.200Z,66.45
2019-03-23T23:56:04.860Z,57.67
2019-03-23T23:58:33.551Z,61.33
